createdAt,value
2023-02-09T07:06:45.786Z,64.00
2023-02-09T07:09:18.752Z,66.10
2023-02-09T07:11:47.420Z,67.70
2023-02-09T07:14:17.057Z,70.90
2023-02-09T07:16:45.970Z,76.10
2023-02-09T07:19:14.589Z,70.60
2023-02-09T07:21:46.087Z,69.70
2023-02-09T07:24:17.745Z,70.70
2023-02-09T07:26:47.003Z,72.80
2023-02-09T07:29:16.014Z,74.00
2023-02-09T07:31:44.662Z,76.60
2023-02-09T07:34:14.637Z,67.40
2023-02-09T07:36:47.720Z,67.80
2023-02-09T07:39:21.180Z,73.00
2023-02-09T07:41:49.783Z,66.90
2023-02-09T07:44:18.560Z,71.80
2023-02-09T07:46:50.034Z,74.10
2023-02-09T07:49:18.928Z,65.20
2023-02-09T07:51:47.279Z,67.50
2023-02-09T07:54:15.995Z,68.90
2023-02-09T07:56:44.402Z,74.50
2023-02-09T07:59:19.180Z,71.60
2023-02-09T08:01:47.910Z,69.50
2023-02-09T08:04:16.910Z,69.70
2023-02-09T08:06:46.816Z,69.70
2023-02-09T08:09:19.808Z,69.50
2023-02-09T08:11:56.845Z,69.60
2023-02-09T08:14:31.763Z,74.10
2023-02-09T08:17:21.416Z,73.40
2023-02-09T08:20:02.257Z,70.70
2023-02-09T08:22:39.058Z,70.20
2023-02-09T08:25:08.578Z,76.40
2023-02-09T08:27:39.755Z,77.80
2023-02-09T08:30:08.756Z,68.00
2023-02-09T08:32:37.402Z,68.10
2023-02-09T08:35:08.754Z,78.60
2023-02-09T08:37:38.676Z,99.10
2023-02-09T08:40:07.534Z,71.10
2023-02-09T08:42:36.156Z,78.20
2023-02-09T08:45:04.906Z,67.40
2023-02-09T08:47:33.767Z,65.70
2023-02-09T08:50:02.717Z,64.00
2023-02-09T08:52:31.275Z,67.80
2023-02-09T08:54:59.965Z,67.90
2023-02-09T08:57:43.178Z,66.50
2023-02-09T09:00:13.632Z,65.60
2023-02-09T09:02:42.133Z,61.00
2023-02-09T09:05:11.449Z,64.90
2023-02-09T09:07:39.749Z,65.50
2023-02-09T09:10:11.712Z,65.10
2023-02-09T09:12:40.058Z,68.00
2023-02-09T09:15:08.890Z,66.80
2023-02-09T09:17:37.505Z,60.70
2023-02-09T09:20:07.243Z,59.00
2023-02-09T09:22:36.287Z,57.60
2023-02-09T09:25:05.392Z,59.60
2023-02-09T09:27:35.272Z,57.20
2023-02-09T09:30:06.383Z,58.50
2023-02-09T09:32:34.929Z,61.90
2023-02-09T09:35:03.835Z,59.10
2023-02-09T09:37:33.216Z,55.40
2023-02-09T09:40:01.688Z,53.60
2023-02-09T09:42:58.684Z,55.10
2023-02-09T09:45:30.739Z,51.50
2023-02-09T09:47:59.329Z,52.90
2023-02-09T09:50:43.206Z,57.30
2023-02-09T09:53:33.647Z,51.80
2023-02-09T09:56:06.786Z,51.80
2023-02-09T09:58:39.801Z,53.50
2023-02-09T10:01:13.890Z,48.40
2023-02-09T10:03:45.120Z,52.00
2023-02-09T10:06:14.298Z,50.00
2023-02-09T10:08:55.879Z,56.00
2023-02-09T10:11:31.222Z,52.60
2023-02-09T10:13:59.983Z,49.70
2023-02-09T10:16:34.762Z,49.70
2023-02-09T10:19:06.666Z,52.30
2023-02-09T10:21:37.630Z,55.90
2023-02-09T10:24:34.014Z,50.60
2023-02-09T10:27:21.640Z,49.40
2023-02-09T10:29:50.609Z,53.60
2023-02-09T10:32:31.368Z,52.30
2023-02-09T10:35:04.968Z,52.50
2023-02-09T10:37:39.254Z,52.30
2023-02-09T10:40:18.139Z,50.60
2023-02-09T10:42:58.731Z,50.80
2023-02-09T10:45:33.341Z,52.70
2023-02-09T10:48:18.034Z,52.80
2023-02-09T10:50:57.868Z,53.80
2023-02-09T10:53:33.764Z,55.80
2023-02-09T10:56:15.303Z,56.90
2023-02-09T10:58:52.486Z,59.00
2023-02-09T11:01:27.340Z,57.20
2023-02-09T11:04:02.890Z,51.20
2023-02-09T11:06:44.355Z,57.50
2023-02-09T11:09:18.836Z,48.80
2023-02-09T11:11:47.373Z,46.40
2023-02-09T11:14:20.339Z,51.30
2023-02-09T11:17:08.289Z,52.40
2023-02-09T11:19:58.209Z,52.10
2023-02-09T11:22:38.059Z,49.90
2023-02-09T11:25:22.156Z,50.30
2023-02-09T11:28:17.178Z,51.70
2023-02-09T11:31:16.058Z,47.50
2023-02-09T11:34:22.239Z,51.40
2023-02-09T11:37:12.421Z,55.80
2023-02-09T11:39:46.406Z,48.00
2023-02-09T11:42:45.802Z,49.60
2023-02-09T11:45:36.108Z,53.20
2023-02-09T11:48:28.650Z,48.20
2023-02-09T11:51:06.493Z,50.30
2023-02-09T11:53:53.181Z,51.70
2023-02-09T11:56:25.931Z,50.30
2023-02-09T11:59:08.787Z,52.50
2023-02-09T12:01:49.431Z,53.10
2023-02-09T12:04:25.787Z,51.40
2023-02-09T12:06:57.672Z,53.70
2023-02-09T12:09:38.133Z,53.70
2023-02-09T12:12:32.688Z,49.70
2023-02-09T12:15:16.997Z,47.60
2023-02-09T12:17:57.792Z,46.80
2023-02-09T12:20:26.305Z,48.30
2023-02-09T12:23:01.586Z,48.50
2023-02-09T12:25:36.198Z,45.00
2023-02-09T12:28:10.540Z,46.10
2023-02-09T12:30:45.261Z,45.80
2023-02-09T12:33:19.553Z,43.20
2023-02-09T12:36:24.728Z,42.30
2023-02-09T12:38:56.787Z,40.80
2023-02-09T12:41:45.780Z,36.20
2023-02-09T12:44:14.162Z,39.90
2023-02-09T12:46:45.340Z,36.10
2023-02-09T12:49:20.380Z,34.80
2023-02-09T12:51:52.613Z,34.90
2023-02-09T12:54:44.978Z,35.10
2023-02-09T12:57:16.622Z,34.30
2023-02-09T12:59:55.557Z,33.10
2023-02-09T13:02:35.945Z,35.00
2023-02-09T13:05:39.381Z,33.30
2023-02-09T13:08:22.978Z,34.00
2023-02-09T13:10:51.301Z,34.20
2023-02-09T13:13:58.647Z,33.90
2023-02-09T13:16:53.404Z,34.70
2023-02-09T13:19:55.961Z,31.50
2023-02-09T13:22:45.759Z,33.20
2023-02-09T13:25:14.975Z,29.70
2023-02-09T13:27:49.307Z,29.80
2023-02-09T13:30:30.868Z,28.50
2023-02-09T13:33:12.850Z,28.30
2023-02-09T13:36:08.912Z,29.20
2023-02-09T13:38:42.136Z,31.80
2023-02-09T13:41:26.136Z,33.20
2023-02-09T13:43:59.494Z,37.20
2023-02-09T13:46:34.775Z,39.50
2023-02-09T13:49:20.629Z,41.10
2023-02-09T13:52:10.776Z,41.70
2023-02-09T13:54:40.029Z,43.00
2023-02-09T13:57:25.938Z,43.60
2023-02-09T13:59:55.235Z,39.40
2023-02-09T14:02:27.400Z,41.20
2023-02-09T14:04:59.912Z,40.90
2023-02-09T14:07:32.904Z,40.40
2023-02-09T14:10:21.745Z,41.00
2023-02-09T14:13:04.071Z,39.40
2023-02-09T14:15:56.464Z,39.60
2023-02-09T14:18:30.819Z,44.70
2023-02-09T14:21:43.866Z,41.50
2023-02-09T14:24:40.163Z,41.70
2023-02-09T14:27:33.342Z,42.10
2023-02-09T14:30:01.609Z,48.70
2023-02-09T14:32:34.721Z,49.90
2023-02-09T14:35:24.762Z,50.60
2023-02-09T14:37:55.722Z,46.00
2023-02-09T14:40:27.345Z,45.80
2023-02-09T14:43:22.396Z,48.30
2023-02-09T14:46:00.408Z,47.00
2023-02-09T14:48:32.210Z,42.10
2023-02-09T14:51:13.504Z,45.70
2023-02-09T14:53:44.869Z,42.20
2023-02-09T14:56:24.459Z,36.00
2023-02-09T14:58:53.043Z,35.80
2023-02-09T15:01:23.027Z,39.00
2023-02-09T15:03:51.727Z,36.20
2023-02-09T15:06:20.274Z,39.50
2023-02-09T15:08:49.280Z,33.80
2023-02-09T15:11:42.760Z,34.90
2023-02-09T15:14:12.247Z,51.10
2023-02-09T15:16:41.436Z,33.90
2023-02-09T15:19:16.732Z,37.20
2023-02-09T15:21:47.550Z,39.30
2023-02-09T15:24:22.868Z,40.90
2023-02-09T15:26:54.316Z,44.00
2023-02-09T15:29:22.596Z,47.30
2023-02-09T15:31:51.354Z,44.30
2023-02-09T15:34:20.015Z,44.10
2023-02-09T15:36:49.105Z,49.10
2023-02-09T15:39:24.730Z,59.00
2023-02-09T15:42:11.690Z,46.90
2023-02-09T15:44:58.950Z,38.90
2023-02-09T15:47:50.137Z,39.20
2023-02-09T15:50:18.345Z,35.40
2023-02-09T15:52:46.851Z,42.20
2023-02-09T15:55:22.348Z,53.10
2023-02-09T15:57:52.854Z,63.90
2023-02-09T16:00:28.281Z,61.50
2023-02-09T16:03:01.728Z,41.90
2023-02-09T16:05:30.937Z,42.00
2023-02-09T16:08:00.150Z,51.70
2023-02-09T16:10:30.308Z,121.90
2023-02-09T16:12:58.857Z,75.80
2023-02-09T16:15:28.219Z,40.30
2023-02-09T16:17:58.653Z,41.60
2023-02-09T16:20:31.156Z,42.90
2023-02-09T16:23:11.773Z,49.80
2023-02-09T16:25:47.995Z,45.10
2023-02-09T16:28:16.603Z,59.00
2023-02-09T16:31:03.779Z,53.10
2023-02-09T16:33:32.328Z,38.60
2023-02-09T16:36:02.913Z,37.30
2023-02-09T16:38:31.420Z,41.30
2023-02-09T16:40:59.586Z,45.40
2023-02-09T16:43:28.418Z,49.40
2023-02-09T16:46:03.310Z,53.00
2023-02-09T16:48:35.089Z,48.00
2023-02-09T16:51:03.577Z,62.20
2023-02-09T16:53:37.217Z,54.10
2023-02-09T16:56:10.819Z,46.00
2023-02-09T16:58:40.268Z,44.30
2023-02-09T17:01:20.268Z,45.90
2023-02-09T17:03:55.061Z,44.80
2023-02-09T17:06:28.206Z,44.80
2023-02-09T17:08:56.941Z,43.60
2023-02-09T17:11:28.468Z,42.00
2023-02-09T17:14:00.358Z,40.00
2023-02-09T17:16:33.709Z,43.70
2023-02-09T17:19:04.683Z,41.90
2023-02-09T17:21:42.100Z,43.30
2023-02-09T17:24:16.030Z,40.60
2023-02-09T17:26:47.213Z,43.90
2023-02-09T17:29:18.466Z,43.70
2023-02-09T17:31:53.896Z,50.40
2023-02-09T17:34:27.468Z,48.20
2023-02-09T17:36:58.029Z,57.10
2023-02-09T17:39:26.544Z,58.80
2023-02-09T17:41:56.737Z,60.40
2023-02-09T17:44:45.195Z,64.10
2023-02-09T17:47:20.454Z,66.10
2023-02-09T17:49:49.241Z,50.00
2023-02-09T17:52:21.477Z,48.30
2023-02-09T17:54:51.260Z,45.00
2023-02-09T17:57:22.830Z,55.90
2023-02-09T17:59:51.057Z,48.70
2023-02-09T18:02:23.715Z,40.50
2023-02-09T18:04:52.092Z,42.00
2023-02-09T18:07:22.144Z,44.60
2023-02-09T18:09:50.505Z,43.70
2023-02-09T18:12:24.924Z,60.70
2023-02-09T18:14:53.719Z,56.10
2023-02-09T18:17:22.086Z,60.70
2023-02-09T18:19:51.304Z,55.70
2023-02-09T18:22:20.283Z,52.70
2023-02-09T18:24:49.332Z,62.10
2023-02-09T18:27:21.308Z,51.40
2023-02-09T18:29:49.675Z,56.90
2023-02-09T18:32:18.293Z,64.40
2023-02-09T18:34:47.080Z,64.50
2023-02-09T18:37:16.425Z,52.90
2023-02-09T18:39:46.974Z,49.50
2023-02-09T18:42:17.174Z,39.00
2023-02-09T18:44:45.541Z,43.20
2023-02-09T18:47:14.281Z,43.50
2023-02-09T18:49:42.880Z,44.70
2023-02-09T18:52:17.410Z,41.00
2023-02-09T18:54:47.014Z,39.40
2023-02-09T18:57:16.624Z,40.30
2023-02-09T18:59:47.751Z,37.10
2023-02-09T19:02:17.773Z,35.80
2023-02-09T19:04:46.105Z,37.10
2023-02-09T19:07:14.633Z,36.10
2023-02-09T19:09:46.586Z,35.20
2023-02-09T19:12:15.466Z,36.80
2023-02-09T19:14:46.249Z,37.00
2023-02-09T19:17:20.360Z,35.30
2023-02-09T19:19:49.422Z,32.90
2023-02-09T19:22:21.230Z,33.00
2023-02-09T19:24:52.986Z,37.00
2023-02-09T19:27:22.997Z,38.50
2023-02-09T19:29:55.949Z,35.90
2023-02-09T19:32:26.560Z,31.80
2023-02-09T19:34:55.189Z,31.20
2023-02-09T19:37:23.760Z,49.00
2023-02-09T19:40:05.061Z,40.50
2023-02-09T19:42:33.988Z,42.50
2023-02-09T19:45:02.772Z,31.90
2023-02-09T19:47:34.217Z,31.30
2023-02-09T19:50:03.018Z,31.20
2023-02-09T19:52:31.700Z,31.50
2023-02-09T19:55:00.142Z,31.70
2023-02-09T19:57:28.781Z,30.50
2023-02-09T19:59:57.249Z,31.70
2023-02-09T20:02:25.733Z,31.40
2023-02-09T20:04:54.945Z,31.10
2023-02-09T20:07:26.315Z,31.10
2023-02-09T20:09:57.474Z,29.40
2023-02-09T20:12:25.976Z,26.90
2023-02-09T20:14:58.565Z,28.60
2023-02-09T20:17:28.450Z,31.10
2023-02-09T20:19:56.663Z,41.60
2023-02-09T20:22:27.982Z,39.40
2023-02-09T20:25:01.205Z,37.80
2023-02-09T20:27:30.682Z,38.70
2023-02-09T20:30:02.412Z,31.40
2023-02-09T20:32:31.176Z,38.70
2023-02-09T20:35:00.138Z,41.80
2023-02-09T20:37:28.822Z,37.00
2023-02-09T20:39:57.743Z,38.90
2023-02-09T20:42:44.982Z,33.40
2023-02-09T20:45:36.682Z,37.10
2023-02-09T20:48:07.115Z,40.70
2023-02-09T20:50:39.214Z,36.80
2023-02-09T20:53:10.495Z,36.80
2023-02-09T20:55:38.969Z,44.60
2023-02-09T20:58:07.620Z,37.90
2023-02-09T21:00:36.983Z,35.10
2023-02-09T21:03:07.111Z,35.60
2023-02-09T21:05:36.128Z,32.90
2023-02-09T21:08:07.063Z,35.40
2023-02-09T21:10:36.639Z,34.60
2023-02-09T21:13:09.603Z,33.60
2023-02-09T21:15:43.049Z,34.40
2023-02-09T21:18:11.819Z,32.70
2023-02-09T21:20:40.330Z,31.40
2023-02-09T21:23:08.869Z,34.60
2023-02-09T21:25:37.756Z,32.60
2023-02-09T21:28:06.928Z,34.90
2023-02-09T21:30:36.535Z,35.40
2023-02-09T21:33:05.222Z,31.80
2023-02-09T21:35:33.732Z,33.60
2023-02-09T21:38:10.367Z,35.80
2023-02-09T21:40:42.218Z,34.50
2023-02-09T21:43:10.668Z,35.50
2023-02-09T21:45:40.058Z,35.10
2023-02-09T21:48:08.662Z,34.90
2023-02-09T21:50:39.832Z,36.20
2023-02-09T21:53:08.457Z,38.00
2023-02-09T21:55:36.846Z,34.40
2023-02-09T21:58:07.544Z,36.70
2023-02-09T22:00:36.119Z,37.80
2023-02-09T22:03:04.772Z,35.10
2023-02-09T22:05:33.020Z,38.40
2023-02-09T22:08:01.804Z,33.50
2023-02-09T22:10:33.198Z,36.00
2023-02-09T22:13:08.655Z,35.70
2023-02-09T22:15:40.917Z,37.20
2023-02-09T22:18:10.735Z,34.40
2023-02-09T22:20:43.858Z,34.80
2023-02-09T22:23:12.306Z,34.40
2023-02-09T22:25:40.840Z,30.20
2023-02-09T22:28:09.440Z,31.90
2023-02-09T22:30:38.165Z,30.90
2023-02-09T22:33:06.764Z,32.10
2023-02-09T22:35:35.359Z,31.80
2023-02-09T22:38:04.122Z,29.30
2023-02-09T22:40:32.781Z,31.60
2023-02-09T22:43:01.285Z,31.60
2023-02-09T22:45:29.766Z,29.30
2023-02-09T22:47:58.335Z,30.50
2023-02-09T22:50:26.799Z,28.70
2023-02-09T22:52:55.620Z,29.90
2023-02-09T22:55:24.520Z,29.70
2023-02-09T22:57:52.755Z,29.70
2023-02-09T23:00:21.208Z,28.70
2023-02-09T23:02:49.475Z,30.40
2023-02-09T23:05:18.043Z,29.00
2023-02-09T23:07:46.542Z,30.40
2023-02-09T23:10:19.836Z,31.00
2023-02-09T23:12:48.398Z,29.50
2023-02-09T23:15:16.809Z,29.90
2023-02-09T23:17:44.944Z,31.90
2023-02-09T23:20:13.359Z,30.40
2023-02-09T23:22:44.628Z,28.50
2023-02-09T23:25:13.154Z,29.70
2023-02-09T23:27:41.713Z,30.00
2023-02-09T23:30:10.928Z,27.70
2023-02-09T23:32:39.551Z,32.90
2023-02-09T23:35:08.458Z,30.30
2023-02-09T23:37:38.097Z,30.60
2023-02-09T23:40:07.713Z,28.30
2023-02-09T23:42:36.067Z,29.10
2023-02-09T23:45:06.485Z,33.30
2023-02-09T23:47:34.775Z,34.90
2023-02-09T23:50:03.080Z,29.90
2023-02-09T23:52:31.606Z,37.80
2023-02-09T23:55:02.843Z,32.30
2023-02-09T23:57:31.422Z,29.70
2023-02-09T23:59:59.789Z,30.60
